Time;durP1;ratioP1;P1;durP2;ratioP2;P2;SDS_P1;SDS_P2;PMS_P1;PMS_P2;Temp;Humidity;BMP_temperature;BMP_pressure;BME280_temperature;BME280_humidity;BME280_pressure;Samples;Min_cycle;Max_cycle;Signal;HPM_P1;HPM_P2
2024/04/19 00:00:23;;;;;;;61.40;8.07;;;;;;;;;;5352228;26;20543;-68
2024/04/19 00:02:49;;;;;;;61.80;8.07;;;;;;;;;;5353167;26;20921;-68
2024/04/19 00:05:18;;;;;;;60.33;8.27;;;;;;;;;;5353101;26;20484;-68
2024/04/19 00:07:44;;;;;;;62.37;8.30;;;;;;;;;;5351658;26;20528;-68
2024/04/19 00:10:13;;;;;;;61.23;8.37;;;;;;;;;;5351727;26;20547;-68
2024/04/19 00:12:39;;;;;;;62.40;8.77;;;;;;;;;;5352142;26;20564;-68
2024/04/19 00:15:11;;;;;;;66.03;9.10;;;;;;;;;;5352452;26;20476;-68
2024/04/19 00:17:37;;;;;;;64.90;8.17;;;;;;;;;;5351801;26;20476;-68
2024/04/19 00:20:06;;;;;;;68.80;9.50;;;;;;;;;;5351881;26;20532;-68
2024/04/19 00:22:33;;;;;;;61.67;8.57;;;;;;;;;;5352364;26;20484;-68
2024/04/19 00:25:01;;;;;;;62.40;8.47;;;;;;;;;;5352555;26;20520;-68
2024/04/19 00:27:27;;;;;;;63.87;9.70;;;;;;;;;;5352180;26;20488;-68
2024/04/19 00:29:56;;;;;;;62.77;9.00;;;;;;;;;;5352089;26;20536;-68
2024/04/19 00:32:25;;;;;;;61.40;8.63;;;;;;;;;;5351998;26;20951;-68
2024/04/19 00:34:54;;;;;;;63.07;8.70;;;;;;;;;;5352100;26;20519;-68
2024/04/19 00:37:20;;;;;;;62.07;8.10;;;;;;;;;;5351915;26;20913;-68
2024/04/19 00:39:49;;;;;;;62.87;9.30;;;;;;;;;;5352268;26;20564;-68
2024/04/19 00:42:15;;;;;;;61.47;8.73;;;;;;;;;;5351268;26;20589;-68
2024/04/19 00:44:43;;;;;;;62.53;8.83;;;;;;;;;;5351753;26;20488;-68
2024/04/19 00:47:11;;;;;;;61.90;8.50;;;;;;;;;;5351017;26;21034;-68
2024/04/19 00:49:43;;;;;;;59.95;7.80;;;;;;;;;;5351728;26;20526;-68
2024/04/19 00:52:11;;;;;;;60.97;8.20;;;;;;;;;;5350649;26;20237;-68
2024/04/19 00:54:40;;;;;;;64.20;8.67;;;;;;;;;;5351434;26;20495;-68
2024/04/19 00:57:07;;;;;;;64.43;9.53;;;;;;;;;;5351595;26;20487;-68
2024/04/19 00:59:36;;;;;;;60.97;7.50;;;;;;;;;;5352062;26;20520;-68
2024/04/19 01:02:02;;;;;;;65.77;8.97;;;;;;;;;;5352132;26;20532;-68
2024/04/19 01:04:31;;;;;;;61.00;8.10;;;;;;;;;;5351590;26;20535;-68
2024/04/19 01:07:00;;;;;;;62.67;8.30;;;;;;;;;;5351798;26;20475;-68
2024/04/19 01:09:29;;;;;;;60.47;7.77;;;;;;;;;;5352030;26;20867;-68
2024/04/19 01:11:55;;;;;;;61.77;8.30;;;;;;;;;;5352313;26;20519;-68
2024/04/19 01:14:24;;;;;;;60.70;7.10;;;;;;;;;;5352112;26;21082;-68
2024/04/19 01:16:50;;;;;;;60.87;7.63;;;;;;;;;;5351117;26;20605;-68
2024/04/19 01:19:19;;;;;;;60.87;7.80;;;;;;;;;;5351681;26;20553;-68
2024/04/19 01:21:48;;;;;;;62.28;8.15;;;;;;;;;;5351174;26;20579;-68
2024/04/19 01:24:21;;;;;;;61.70;8.53;;;;;;;;;;5351248;26;20350;-68
2024/04/19 01:26:52;;;;;;;61.47;8.07;;;;;;;;;;5351098;26;20479;-68
2024/04/19 01:29:18;;;;;;;63.60;8.87;;;;;;;;;;5351210;26;20607;-68
2024/04/19 01:31:47;;;;;;;61.60;8.03;;;;;;;;;;5351010;26;20515;-68
2024/04/19 01:34:13;;;;;;;61.90;9.17;;;;;;;;;;5351416;26;20595;-68
2024/04/19 01:36:42;;;;;;;63.20;9.20;;;;;;;;;;5351015;26;20483;-68
2024/04/19 01:39:08;;;;;;;61.47;8.07;;;;;;;;;;5351317;26;20491;-68
2024/04/19 01:41:37;;;;;;;62.10;7.87;;;;;;;;;;5351531;26;20556;-68
2024/04/19 01:44:08;;;;;;;63.87;8.80;;;;;;;;;;5351307;26;20480;-68
2024/04/19 01:46:34;;;;;;;62.07;8.17;;;;;;;;;;5351066;26;20525;-68
2024/04/19 01:49:03;;;;;;;62.13;9.27;;;;;;;;;;5351231;26;20464;-68
2024/04/19 01:51:32;;;;;;;62.57;7.80;;;;;;;;;;5350448;26;20483;-68
2024/04/19 01:53:59;;;;;;;61.37;7.97;;;;;;;;;;5351019;26;20487;-68
2024/04/19 01:56:27;;;;;;;61.70;8.10;;;;;;;;;;5351032;26;20463;-68
2024/04/19 01:58:54;;;;;;;61.30;8.00;;;;;;;;;;5351184;26;20464;-68
2024/04/19 02:01:25;;;;;;;60.57;7.80;;;;;;;;;;5350995;26;20579;-68
2024/04/19 02:03:51;;;;;;;63.87;8.70;;;;;;;;;;5352564;26;20823;-68
2024/04/19 02:06:20;;;;;;;62.97;8.87;;;;;;;;;;5354041;26;20491;-67
2024/04/19 02:08:46;;;;;;;60.30;8.20;;;;;;;;;;5354794;26;20556;-69
2024/04/19 02:11:15;;;;;;;60.97;7.60;;;;;;;;;;5354968;26;20561;-68
2024/04/19 02:13:41;;;;;;;62.00;8.00;;;;;;;;;;5353874;26;21247;-68
2024/04/19 02:16:10;;;;;;;63.93;8.70;;;;;;;;;;5353765;26;20543;-68
2024/04/19 02:18:39;;;;;;;63.30;8.40;;;;;;;;;;5354685;26;20468;-68
2024/04/19 02:21:08;;;;;;;62.30;8.97;;;;;;;;;;5354527;26;20475;-68
2024/04/19 02:23:41;;;;;;;61.50;8.50;;;;;;;;;;5354168;26;21118;-68
2024/04/19 02:26:10;;;;;;;64.50;8.17;;;;;;;;;;5353976;26;21134;-68
2024/04/19 02:31:24;;;;;;;62.10;9.10;;;;;;;;;;5356336;26;20916;-67
2024/04/19 02:33:56;;;;;;;60.70;8.60;;;;;;;;;;5353900;26;20483;-67
2024/04/19 02:36:24;;;;;;;60.67;7.83;;;;;;;;;;5353757;26;20593;-67
2024/04/19 02:38:53;;;;;;;61.10;7.77;;;;;;;;;;5339801;26;20805;-68
2024/04/19 02:41:23;;;;;;;60.47;8.10;;;;;;;;;;5354220;26;20503;-67
2024/04/19 02:43:52;;;;;;;62.27;8.00;;;;;;;;;;5353365;26;20475;-68
2024/04/19 02:46:20;;;;;;;60.97;8.80;;;;;;;;;;5353066;26;20531;-68
2024/04/19 02:48:51;;;;;;;61.07;7.33;;;;;;;;;;5353421;26;21023;-68
2024/04/19 02:51:22;;;;;;;61.10;8.23;;;;;;;;;;5353193;26;20531;-68
2024/04/19 02:53:51;;;;;;;61.80;7.60;;;;;;;;;;5353195;26;20581;-67
2024/04/19 02:56:20;;;;;;;61.10;8.80;;;;;;;;;;5353109;26;21138;-67
2024/04/19 02:58:48;;;;;;;63.80;9.40;;;;;;;;;;5353625;26;20528;-68
2024/04/19 03:01:17;;;;;;;61.00;8.07;;;;;;;;;;5353891;26;20856;-68
2024/04/19 03:03:43;;;;;;;62.90;8.47;;;;;;;;;;5353716;26;20468;-68
2024/04/19 03:06:12;;;;;;;62.27;7.87;;;;;;;;;;5353229;26;20483;-67
2024/04/19 03:08:45;;;;;;;62.23;8.57;;;;;;;;;;5353465;26;21149;-68
2024/04/19 03:11:13;;;;;;;63.53;9.07;;;;;;;;;;5353836;26;20524;-67
2024/04/19 03:13:42;;;;;;;61.00;8.10;;;;;;;;;;5353801;26;20556;-67
2024/04/19 03:16:12;;;;;;;59.83;7.00;;;;;;;;;;5352092;26;20779;-67
2024/04/19 03:18:42;;;;;;;62.90;7.60;;;;;;;;;;5353941;26;20603;-68
2024/04/19 03:21:11;;;;;;;61.22;7.90;;;;;;;;;;5354060;26;20796;-67
2024/04/19 03:23:39;;;;;;;62.20;7.83;;;;;;;;;;5353017;26;20249;-68
2024/04/19 03:26:11;;;;;;;63.90;9.47;;;;;;;;;;5353421;26;21007;-67
2024/04/19 03:28:39;;;;;;;62.63;7.70;;;;;;;;;;5352513;26;20479;-67
2024/04/19 03:31:09;;;;;;;61.10;7.80;;;;;;;;;;5353477;26;20483;-67
2024/04/19 03:33:38;;;;;;;67.43;8.70;;;;;;;;;;5352965;26;20463;-68
2024/04/19 03:36:08;;;;;;;60.90;7.90;;;;;;;;;;5353584;26;20521;-67
2024/04/19 03:38:36;;;;;;;61.50;7.73;;;;;;;;;;5353943;26;20472;-68
2024/04/19 03:41:05;;;;;;;61.90;8.53;;;;;;;;;;5352996;26;20459;-68
2024/04/19 03:43:41;;;;;;;63.90;7.97;;;;;;;;;;5353124;26;20568;-68
2024/04/19 03:46:07;;;;;;;62.70;8.70;;;;;;;;;;5352682;26;20483;-67
2024/04/19 03:48:36;;;;;;;63.40;7.80;;;;;;;;;;5353403;26;20593;-68
2024/04/19 03:51:05;;;;;;;60.20;6.80;;;;;;;;;;5353059;26;20484;-68
2024/04/19 03:53:34;;;;;;;62.67;6.80;;;;;;;;;;5352499;26;20524;-67
2024/04/19 03:56:03;;;;;;;62.13;7.27;;;;;;;;;;5353290;26;20528;-68
2024/04/19 03:58:32;;;;;;;61.20;7.53;;;;;;;;;;5353375;26;20532;-68
2024/04/19 04:01:05;;;;;;;63.20;7.17;;;;;;;;;;5352827;26;20598;-67
2024/04/19 04:03:32;;;;;;;59.40;6.27;;;;;;;;;;5352399;26;20532;-67
2024/04/19 04:06:01;;;;;;;61.77;6.97;;;;;;;;;;5351829;26;21042;-67
2024/04/19 04:08:30;;;;;;;59.77;6.67;;;;;;;;;;5351867;26;20603;-67
2024/04/19 04:11:00;;;;;;;60.57;7.23;;;;;;;;;;5352362;26;20952;-67
2024/04/19 04:13:29;;;;;;;59.50;6.30;;;;;;;;;;5352223;26;21013;-67
2024/04/19 04:15:58;;;;;;;60.87;7.10;;;;;;;;;;5338090;26;20472;-68
2024/04/19 04:18:29;;;;;;;63.60;6.87;;;;;;;;;;5351137;26;20873;-68
2024/04/19 04:20:58;;;;;;;60.30;6.07;;;;;;;;;;5351859;26;20524;-68
2024/04/19 04:23:26;;;;;;;59.93;6.60;;;;;;;;;;5351909;26;20471;-68
2024/04/19 04:25:55;;;;;;;68.13;7.73;;;;;;;;;;5347976;26;20663;-67
2024/04/19 04:28:24;;;;;;;59.67;6.43;;;;;;;;;;5351743;26;20534;-68
2024/04/19 04:30:53;;;;;;;64.70;6.83;;;;;;;;;;5352747;26;20476;-68
2024/04/19 04:33:22;;;;;;;60.07;6.67;;;;;;;;;;5352078;26;20479;-68
2024/04/19 04:35:53;;;;;;;59.80;6.23;;;;;;;;;;5352387;26;20523;-68
2024/04/19 04:38:22;;;;;;;64.53;7.57;;;;;;;;;;5351871;26;20496;-68
2024/04/19 04:40:51;;;;;;;60.77;6.77;;;;;;;;;;5351691;26;20595;-68
2024/04/19 04:43:20;;;;;;;60.80;7.97;;;;;;;;;;5352181;26;20480;-68
2024/04/19 04:45:49;;;;;;;63.57;6.43;;;;;;;;;;5351558;26;20528;-67
2024/04/19 04:48:18;;;;;;;60.17;6.47;;;;;;;;;;5351725;26;20479;-68
2024/04/19 04:50:47;;;;;;;60.53;6.27;;;;;;;;;;5351819;26;20523;-68
2024/04/19 04:53:18;;;;;;;62.37;6.37;;;;;;;;;;5352044;26;20495;-68
2024/04/19 04:55:47;;;;;;;61.00;6.67;;;;;;;;;;5351855;26;20483;-68
2024/04/19 04:58:16;;;;;;;60.70;6.33;;;;;;;;;;5351386;26;20568;-69
2024/04/19 05:00:47;;;;;;;62.17;7.30;;;;;;;;;;5352003;26;20516;-69
2024/04/19 05:03:15;;;;;;;61.10;5.87;;;;;;;;;;5351473;26;20483;-68
2024/04/19 05:05:44;;;;;;;59.50;6.27;;;;;;;;;;5350841;26;20571;-69
2024/04/19 05:08:13;;;;;;;60.90;6.23;;;;;;;;;;5351103;26;20479;-69
2024/04/19 05:10:44;;;;;;;61.00;6.90;;;;;;;;;;5351158;26;20479;-69
2024/04/19 05:13:13;;;;;;;61.43;6.00;;;;;;;;;;5351127;26;20598;-69
2024/04/19 05:15:43;;;;;;;66.20;7.23;;;;;;;;;;5351457;26;20472;-68
2024/04/19 05:18:12;;;;;;;59.50;6.00;;;;;;;;;;5351082;26;20519;-68
2024/04/19 05:20:40;;;;;;;61.10;7.50;;;;;;;;;;5350566;26;20946;-68
2024/04/19 05:23:09;;;;;;;62.93;7.20;;;;;;;;;;5350417;26;20475;-68
2024/04/19 05:25:39;;;;;;;61.63;6.70;;;;;;;;;;5350201;26;20979;-67
2024/04/19 05:28:10;;;;;;;61.53;7.20;;;;;;;;;;5350210;26;20472;-68
2024/04/19 05:30:39;;;;;;;61.17;6.17;;;;;;;;;;5350421;26;20589;-68
2024/04/19 05:33:08;;;;;;;60.40;6.40;;;;;;;;;;5350774;26;20898;-68
2024/04/19 05:35:36;;;;;;;61.53;7.33;;;;;;;;;;5351371;26;20475;-67
2024/04/19 05:38:05;;;;;;;60.70;6.93;;;;;;;;;;5350644;26;20495;-68
2024/04/19 05:40:34;;;;;;;60.10;6.77;;;;;;;;;;5353312;26;20475;-68
2024/04/19 05:43:03;;;;;;;63.20;7.43;;;;;;;;;;5341205;26;20961;-68
2024/04/19 05:45:35;;;;;;;61.30;7.20;;;;;;;;;;5353879;26;20545;-68
2024/04/19 05:48:03;;;;;;;61.93;6.80;;;;;;;;;;5340405;26;20830;-68
2024/04/19 05:50:32;;;;;;;59.47;6.63;;;;;;;;;;5353365;26;20574;-68
2024/04/19 05:53:01;;;;;;;60.63;7.07;;;;;;;;;;5353510;26;20478;-67
2024/04/19 05:55:30;;;;;;;60.97;5.77;;;;;;;;;;5354378;26;20499;-68
2024/04/19 05:57:59;;;;;;;60.90;5.80;;;;;;;;;;5352852;26;20487;-68
2024/04/19 06:00:28;;;;;;;59.40;5.67;;;;;;;;;;5354075;26;20472;-67
2024/04/19 06:02:59;;;;;;;61.17;6.57;;;;;;;;;;5353265;26;20586;-68
2024/04/19 06:05:28;;;;;;;60.97;6.40;;;;;;;;;;5353603;26;20479;-68
2024/04/19 06:07:57;;;;;;;60.63;5.53;;;;;;;;;;5352989;26;21062;-68
2024/04/19 06:10:25;;;;;;;60.20;5.87;;;;;;;;;;5353723;26;20994;-68
2024/04/19 06:12:54;;;;;;;60.03;5.70;;;;;;;;;;5353819;26;20514;-68
2024/04/19 06:15:23;;;;;;;61.20;5.53;;;;;;;;;;5353451;26;20583;-68
2024/04/19 06:17:52;;;;;;;59.70;5.83;;;;;;;;;;5350619;26;20479;-68
2024/04/19 06:20:23;;;;;;;59.77;5.57;;;;;;;;;;5354750;26;20468;-67
2024/04/19 06:22:52;;;;;;;62.47;6.40;;;;;;;;;;5354086;26;20510;-68
2024/04/19 06:25:21;;;;;;;58.37;5.10;;;;;;;;;;5355490;26;20483;-68
2024/04/19 06:27:50;;;;;;;59.43;5.97;;;;;;;;;;5352332;26;20475;-68
2024/04/19 06:30:19;;;;;;;59.87;5.17;;;;;;;;;;5353814;26;20887;-68
2024/04/19 06:32:48;;;;;;;59.67;4.63;;;;;;;;;;5353159;26;20464;-68
2024/04/19 06:35:18;;;;;;;60.40;4.80;;;;;;;;;;5341562;26;21015;-68
2024/04/19 06:37:49;;;;;;;58.70;4.83;;;;;;;;;;5351466;26;20483;-68
2024/04/19 06:40:18;;;;;;;58.00;3.80;;;;;;;;;;5352909;26;20559;-68
2024/04/19 06:42:47;;;;;;;58.70;5.07;;;;;;;;;;5352988;26;20476;-68
2024/04/19 06:45:16;;;;;;;60.63;5.23;;;;;;;;;;5352676;26;20471;-68
2024/04/19 06:47:45;;;;;;;57.67;4.73;;;;;;;;;;5352646;26;20484;-68
2024/04/19 06:50:14;;;;;;;58.00;4.83;;;;;;;;;;5351225;26;20524;-68
2024/04/19 06:52:43;;;;;;;58.40;4.60;;;;;;;;;;5353106;26;20467;-68
2024/04/19 06:55:14;;;;;;;60.30;4.90;;;;;;;;;;5352273;26;20531;-69
2024/04/19 06:57:43;;;;;;;58.87;4.83;;;;;;;;;;5351455;26;20567;-68
2024/04/19 07:00:12;;;;;;;58.97;5.50;;;;;;;;;;5352055;26;20487;-68
2024/04/19 07:02:41;;;;;;;59.70;5.00;;;;;;;;;;5352136;26;20567;-68
2024/04/19 07:05:09;;;;;;;58.57;4.93;;;;;;;;;;5352630;26;21133;-68
2024/04/19 07:07:38;;;;;;;58.10;4.90;;;;;;;;;;5351512;26;20933;-67
2024/04/19 07:10:08;;;;;;;58.97;4.70;;;;;;;;;;5338618;26;20483;-68
2024/04/19 07:12:39;;;;;;;60.43;4.60;;;;;;;;;;5351572;26;20596;-67
2024/04/19 07:15:08;;;;;;;60.43;4.50;;;;;;;;;;5351094;26;20487;-68
2024/04/19 07:17:37;;;;;;;60.07;5.13;;;;;;;;;;5352274;26;21043;-68
2024/04/19 07:20:06;;;;;;;57.50;4.97;;;;;;;;;;5352157;26;20972;-68
2024/04/19 07:22:35;;;;;;;59.70;5.57;;;;;;;;;;5352802;26;20576;-68
2024/04/19 07:25:04;;;;;;;57.63;4.33;;;;;;;;;;5351894;26;20659;-67
2024/04/19 07:27:32;;;;;;;58.00;4.97;;;;;;;;;;5351329;26;20594;-67
2024/04/19 07:30:04;;;;;;;58.90;4.70;;;;;;;;;;5350941;26;20740;-67
2024/04/19 07:32:32;;;;;;;59.27;5.60;;;;;;;;;;5351633;26;20480;-68
2024/04/19 07:35:01;;;;;;;59.00;5.30;;;;;;;;;;5352094;26;21087;-68
2024/04/19 07:37:30;;;;;;;60.90;5.37;;;;;;;;;;5351629;26;20506;-67
2024/04/19 07:39:59;;;;;;;61.10;5.60;;;;;;;;;;5352501;26;20483;-68
2024/04/19 07:42:32;;;;;;;57.07;4.37;;;;;;;;;;5350932;26;20488;-67
2024/04/19 07:45:04;;;;;;;58.17;4.33;;;;;;;;;;5351661;26;20532;-68
2024/04/19 07:47:32;;;;;;;58.57;5.70;;;;;;;;;;5350554;26;20484;-67
2024/04/19 07:50:01;;;;;;;57.97;4.73;;;;;;;;;;5349856;26;20598;-67
2024/04/19 07:52:30;;;;;;;63.08;4.88;;;;;;;;;;5346380;26;20364;-68
2024/04/19 07:54:59;;;;;;;58.10;4.60;;;;;;;;;;5346660;26;20238;-68
2024/04/19 07:57:28;;;;;;;57.70;4.80;;;;;;;;;;5346439;26;21075;-68
2024/04/19 07:59:56;;;;;;;58.13;4.67;;;;;;;;;;5347513;26;20496;-68
2024/04/19 08:02:28;;;;;;;58.87;4.60;;;;;;;;;;5346820;26;20531;-68
2024/04/19 08:04:57;;;;;;;57.57;4.73;;;;;;;;;;5347061;26;20483;-68
2024/04/19 08:07:26;;;;;;;58.47;4.63;;;;;;;;;;5346148;26;20479;-68
2024/04/19 08:09:55;;;;;;;57.90;4.27;;;;;;;;;;5347254;26;20830;-68
2024/04/19 08:12:24;;;;;;;57.77;4.50;;;;;;;;;;5348341;26;20468;-69
2024/04/19 08:14:53;;;;;;;58.77;5.30;;;;;;;;;;5351309;26;20610;-68
2024/04/19 08:17:21;;;;;;;59.37;5.00;;;;;;;;;;5350212;26;20532;-68
2024/04/19 08:19:53;;;;;;;57.20;4.30;;;;;;;;;;5351571;26;20523;-68
2024/04/19 08:22:22;;;;;;;62.30;4.80;;;;;;;;;;5353330;26;20518;-68
2024/04/19 08:24:50;;;;;;;57.80;4.93;;;;;;;;;;5353869;26;20480;-68
2024/04/19 08:27:20;;;;;;;59.20;4.77;;;;;;;;;;5352772;26;20590;-67
2024/04/19 08:29:48;;;;;;;58.67;5.00;;;;;;;;;;5353664;26;20527;-67
2024/04/19 08:32:17;;;;;;;59.20;5.83;;;;;;;;;;5358039;26;20582;-68
2024/04/19 08:34:50;;;;;;;57.20;4.50;;;;;;;;;;5357991;26;20472;-67
2024/04/19 08:37:22;;;;;;;58.50;4.80;;;;;;;;;;5356647;26;20888;-66
2024/04/19 08:39:52;;;;;;;61.57;5.20;;;;;;;;;;5358862;26;20479;-66
2024/04/19 08:42:22;;;;;;;57.70;4.87;;;;;;;;;;5357760;26;20584;-66
2024/04/19 08:44:52;;;;;;;58.00;4.77;;;;;;;;;;5357600;26;20511;-66
2024/04/19 08:47:21;;;;;;;59.33;5.63;;;;;;;;;;5356645;26;20535;-67
2024/04/19 08:49:52;;;;;;;60.33;5.00;;;;;;;;;;5357658;26;20556;-67
2024/04/19 08:52:24;;;;;;;57.77;4.53;;;;;;;;;;5356740;26;20479;-67
2024/04/19 08:54:53;;;;;;;58.30;5.37;;;;;;;;;;5355439;26;20483;-67
2024/04/19 08:57:26;;;;;;;57.97;5.00;;;;;;;;;;5355890;26;20899;-67
2024/04/19 08:59:55;;;;;;;58.27;5.23;;;;;;;;;;5356305;26;20480;-67
2024/04/19 09:02:24;;;;;;;57.83;5.00;;;;;;;;;;5356736;26;20476;-66
2024/04/19 09:04:52;;;;;;;58.70;5.50;;;;;;;;;;5358331;26;20528;-67
2024/04/19 09:07:24;;;;;;;58.03;4.70;;;;;;;;;;5357857;26;20520;-66
2024/04/19 09:09:53;;;;;;;57.97;5.00;;;;;;;;;;5357767;26;20488;-66
2024/04/19 09:12:22;;;;;;;58.83;5.53;;;;;;;;;;5357578;26;20519;-66
2024/04/19 09:14:51;;;;;;;58.10;4.93;;;;;;;;;;5357026;26;20471;-67
2024/04/19 09:17:20;;;;;;;58.50;4.77;;;;;;;;;;5356471;26;21030;-66
2024/04/19 09:19:49;;;;;;;59.30;5.10;;;;;;;;;;5357045;26;20468;-66
2024/04/19 09:22:18;;;;;;;57.07;4.57;;;;;;;;;;5357631;26;20472;-66
2024/04/19 09:24:52;;;;;;;57.77;4.57;;;;;;;;;;5357910;26;20471;-67
2024/04/19 09:27:21;;;;;;;57.77;4.67;;;;;;;;;;5357530;26;20524;-67
2024/04/19 09:29:50;;;;;;;61.83;5.10;;;;;;;;;;5358087;26;20468;-66
2024/04/19 09:32:21;;;;;;;59.60;6.00;;;;;;;;;;5356642;26;20536;-66
2024/04/19 09:34:50;;;;;;;57.90;4.87;;;;;;;;;;5357504;26;20491;-67
2024/04/19 09:37:19;;;;;;;58.20;5.27;;;;;;;;;;5357655;26;20479;-67
2024/04/19 09:39:50;;;;;;;58.43;5.10;;;;;;;;;;5357925;26;20755;-66
2024/04/19 09:42:19;;;;;;;58.67;5.80;;;;;;;;;;5357295;26;20484;-66
2024/04/19 09:44:51;;;;;;;58.37;5.47;;;;;;;;;;5357451;26;20893;-66
2024/04/19 09:47:20;;;;;;;59.57;5.37;;;;;;;;;;5357052;26;20591;-66
2024/04/19 09:49:50;;;;;;;58.27;5.63;;;;;;;;;;5355945;26;20467;-66
2024/04/19 09:52:22;;;;;;;58.93;5.23;;;;;;;;;;5356643;26;20528;-66
2024/04/19 09:54:59;;;;;;;59.20;5.90;;;;;;;;;;5356759;26;20484;-67
2024/04/19 09:57:29;;;;;;;58.57;5.93;;;;;;;;;;5356818;26;20483;-66
2024/04/19 09:59:59;;;;;;;57.00;4.90;;;;;;;;;;5356561;26;20487;-66
2024/04/19 10:02:28;;;;;;;58.47;5.03;;;;;;;;;;5355862;26;20460;-67
2024/04/19 10:04:57;;;;;;;58.00;4.70;;;;;;;;;;5355210;26;20483;-66
2024/04/19 10:07:27;;;;;;;58.37;4.60;;;;;;;;;;5355866;26;20553;-66
2024/04/19 10:09:58;;;;;;;59.00;5.43;;;;;;;;;;5351918;26;20480;-66
2024/04/19 10:12:27;;;;;;;58.30;5.33;;;;;;;;;;5351412;26;20483;-66
2024/04/19 10:14:56;;;;;;;59.87;5.50;;;;;;;;;;5352111;26;20476;-67
2024/04/19 10:17:25;;;;;;;57.67;5.20;;;;;;;;;;5350348;26;20498;-65
2024/04/19 10:19:54;;;;;;;60.50;5.47;;;;;;;;;;5351737;26;20856;-65
2024/04/19 10:22:24;;;;;;;58.70;5.60;;;;;;;;;;5351203;26;20467;-65
2024/04/19 10:25:00;;;;;;;58.73;5.77;;;;;;;;;;5350757;26;20471;-65
2024/04/19 10:27:32;;;;;;;58.50;5.57;;;;;;;;;;5352043;26;20470;-66
2024/04/19 10:30:00;;;;;;;58.67;5.40;;;;;;;;;;5353819;26;20579;-66
2024/04/19 10:32:29;;;;;;;63.37;5.73;;;;;;;;;;5353030;26;20945;-66
2024/04/19 10:34:58;;;;;;;59.67;6.30;;;;;;;;;;5353958;26;20496;-66
2024/04/19 10:37:24;;;;;;;58.93;5.17;;;;;;;;;;5353135;26;20484;-67
2024/04/19 10:39:53;;;;;;;58.80;5.63;;;;;;;;;;5354423;26;20475;-65
2024/04/19 10:42:22;;;;;;;59.07;5.73;;;;;;;;;;5354619;26;20479;-64
2024/04/19 10:44:53;;;;;;;61.30;6.67;;;;;;;;;;5354410;26;20492;-65
2024/04/19 10:47:23;;;;;;;59.00;5.97;;;;;;;;;;5342110;26;20479;-65
2024/04/19 10:49:52;;;;;;;60.70;6.60;;;;;;;;;;5356156;26;20472;-65
2024/04/19 10:52:22;;;;;;;60.37;6.00;;;;;;;;;;5355640;26;20518;-65
2024/04/19 10:54:51;;;;;;;59.23;6.87;;;;;;;;;;5354357;26;20522;-64
2024/04/19 10:57:20;;;;;;;58.70;6.27;;;;;;;;;;5352916;26;20483;-65
2024/04/19 10:59:48;;;;;;;59.67;6.00;;;;;;;;;;5353643;26;20526;-66
2024/04/19 11:02:21;;;;;;;58.37;5.33;;;;;;;;;;5340351;26;20587;-66
2024/04/19 11:04:50;;;;;;;59.20;6.00;;;;;;;;;;5356152;26;20531;-65
2024/04/19 11:07:19;;;;;;;59.70;6.33;;;;;;;;;;5340189;26;20483;-65
2024/04/19 11:09:47;;;;;;;59.03;5.97;;;;;;;;;;5353227;26;20480;-66
2024/04/19 11:12:16;;;;;;;59.60;5.60;;;;;;;;;;5352931;26;20579;-65
2024/04/19 11:14:45;;;;;;;60.50;6.20;;;;;;;;;;5354896;26;20579;-66
2024/04/19 11:17:14;;;;;;;58.50;6.10;;;;;;;;;;5352326;26;20622;-66
2024/04/19 11:19:45;;;;;;;58.60;5.53;;;;;;;;;;5352020;26;20487;-65
2024/04/19 11:22:14;;;;;;;58.80;5.83;;;;;;;;;;5351661;26;20583;-66
2024/04/19 11:24:43;;;;;;;58.80;5.60;;;;;;;;;;5353015;26;20594;-65
2024/04/19 11:27:12;;;;;;;59.47;5.93;;;;;;;;;;5350332;26;20475;-66
2024/04/19 11:29:40;;;;;;;59.23;5.70;;;;;;;;;;5350234;26;20907;-66
2024/04/19 11:32:10;;;;;;;58.87;5.10;;;;;;;;;;5351094;26;20460;-66
2024/04/19 11:34:39;;;;;;;58.00;4.80;;;;;;;;;;5348696;26;20523;-65
2024/04/19 11:37:10;;;;;;;58.37;5.03;;;;;;;;;;5347849;26;20867;-66
2024/04/19 11:39:39;;;;;;;60.03;4.50;;;;;;;;;;5350842;26;20483;-66
2024/04/19 11:42:06;;;;;;;59.67;4.90;;;;;;;;;;5349198;26;20491;-66
2024/04/19 11:44:34;;;;;;;57.80;4.70;;;;;;;;;;5349500;26;20488;-65
2024/04/19 11:47:05;;;;;;;59.20;5.97;;;;;;;;;;5348251;26;20484;-66
2024/04/19 11:49:34;;;;;;;57.30;4.50;;;;;;;;;;5349896;26;20822;-66
2024/04/19 11:52:03;;;;;;;57.67;4.33;;;;;;;;;;5351135;26;20481;-65
2024/04/19 11:54:35;;;;;;;58.13;4.17;;;;;;;;;;5349406;26;20531;-66
2024/04/19 11:57:04;;;;;;;57.20;4.37;;;;;;;;;;5350111;26;20484;-66
2024/04/19 11:59:34;;;;;;;58.00;4.33;;;;;;;;;;5350059;26;20995;-66
2024/04/19 12:02:04;;;;;;;56.73;4.00;;;;;;;;;;5348250;26;20539;-66
2024/04/19 12:04:33;;;;;;;57.10;4.60;;;;;;;;;;5347918;26;20991;-65
2024/04/19 12:07:01;;;;;;;57.47;4.40;;;;;;;;;;5348364;26;20504;-66
2024/04/19 12:09:32;;;;;;;56.83;3.60;;;;;;;;;;5349126;26;20475;-66
2024/04/19 12:12:03;;;;;;;56.90;4.17;;;;;;;;;;5348986;26;20536;-66
2024/04/19 12:14:34;;;;;;;56.77;3.47;;;;;;;;;;5348799;26;20472;-65
2024/04/19 12:17:03;;;;;;;61.00;3.93;;;;;;;;;;5347841;26;20479;-65
2024/04/19 12:19:32;;;;;;;56.60;3.87;;;;;;;;;;5348863;26;20491;-65
2024/04/19 12:22:01;;;;;;;58.20;4.30;;;;;;;;;;5350010;26;20529;-68
2024/04/19 12:24:34;;;;;;;56.50;3.40;;;;;;;;;;5349070;26;20483;-65
2024/04/19 12:27:06;;;;;;;56.60;3.50;;;;;;;;;;5349922;26;20723;-66
2024/04/19 12:29:35;;;;;;;57.40;3.40;;;;;;;;;;5349163;26;20559;-66
2024/04/19 12:32:06;;;;;;;56.80;4.00;;;;;;;;;;5348089;26;21003;-65
2024/04/19 12:34:35;;;;;;;56.93;3.67;;;;;;;;;;5349457;26;20479;-65
2024/04/19 12:37:03;;;;;;;56.83;3.97;;;;;;;;;;5348308;26;20487;-65
2024/04/19 12:39:32;;;;;;;57.10;4.20;;;;;;;;;;5348486;26;20884;-66
2024/04/19 12:42:02;;;;;;;58.00;3.93;;;;;;;;;;5348040;26;20479;-66
2024/04/19 12:44:33;;;;;;;57.70;4.33;;;;;;;;;;5347866;26;20476;-66
2024/04/19 12:47:02;;;;;;;57.70;4.30;;;;;;;;;;5347483;26;20480;-66
2024/04/19 12:49:31;;;;;;;56.60;3.50;;;;;;;;;;5348414;26;20475;-66
2024/04/19 12:52:00;;;;;;;56.70;3.87;;;;;;;;;;5349201;26;20556;-66
2024/04/19 12:54:29;;;;;;;58.27;3.30;;;;;;;;;;5349351;26;21065;-67
2024/04/19 12:56:57;;;;;;;56.40;3.60;;;;;;;;;;5350437;26;20587;-65
2024/04/19 12:59:26;;;;;;;55.93;3.53;;;;;;;;;;5350606;26;20488;-66
2024/04/19 13:01:57;;;;;;;55.97;3.20;;;;;;;;;;5350643;26;20979;-67
2024/04/19 13:04:26;;;;;;;56.80;3.63;;;;;;;;;;5350220;26;20532;-66
2024/04/19 13:06:55;;;;;;;56.47;3.77;;;;;;;;;;5350952;26;20483;-66
2024/04/19 13:09:24;;;;;;;57.50;3.50;;;;;;;;;;5350841;26;20471;-66
2024/04/19 13:11:52;;;;;;;56.70;3.83;;;;;;;;;;5352929;26;20484;-66
2024/04/19 13:14:23;;;;;;;56.37;3.73;;;;;;;;;;5352696;26;20483;-66
2024/04/19 13:16:52;;;;;;;56.77;3.67;;;;;;;;;;5352211;26;20483;-66
2024/04/19 13:19:23;;;;;;;56.40;3.53;;;;;;;;;;5351309;26;20476;-66
2024/04/19 13:21:52;;;;;;;56.90;3.60;;;;;;;;;;5351529;26;20656;-66
2024/04/19 13:24:21;;;;;;;56.90;3.60;;;;;;;;;;5352597;26;20480;-65
2024/04/19 13:26:49;;;;;;;57.33;3.77;;;;;;;;;;5352363;26;20529;-66
2024/04/19 13:29:18;;;;;;;56.20;3.60;;;;;;;;;;5352618;26;20483;-67
2024/04/19 13:31:49;;;;;;;57.00;3.60;;;;;;;;;;5353235;26;20599;-66
2024/04/19 13:34:17;;;;;;;56.27;3.37;;;;;;;;;;5353037;26;20531;-66
2024/04/19 13:36:49;;;;;;;56.20;3.30;;;;;;;;;;5351093;26;20595;-66
2024/04/19 13:39:18;;;;;;;56.67;3.50;;;;;;;;;;5351538;26;21145;-66
2024/04/19 13:41:47;;;;;;;56.97;3.30;;;;;;;;;;5354069;26;20900;-67
2024/04/19 13:44:13;;;;;;;56.07;3.40;;;;;;;;;;5354852;26;20557;-67
2024/04/19 13:46:42;;;;;;;56.60;3.37;;;;;;;;;;5353649;26;20543;-67
2024/04/19 13:49:11;;;;;;;56.00;3.20;;;;;;;;;;5353752;26;20851;-67
2024/04/19 13:51:40;;;;;;;55.80;2.80;;;;;;;;;;5353498;26;20472;-67
2024/04/19 13:54:12;;;;;;;56.20;3.20;;;;;;;;;;5353381;26;20531;-66
2024/04/19 13:56:42;;;;;;;57.17;3.30;;;;;;;;;;5352339;26;20507;-67
2024/04/19 13:59:14;;;;;;;56.20;3.10;;;;;;;;;;5351011;26;20528;-66
2024/04/19 14:01:42;;;;;;;56.17;3.37;;;;;;;;;;5352457;26;20526;-66
2024/04/19 14:04:11;;;;;;;56.17;3.47;;;;;;;;;;5353633;26;20460;-67
2024/04/19 14:06:40;;;;;;;56.93;3.73;;;;;;;;;;5351449;26;20483;-66
2024/04/19 14:09:11;;;;;;;56.20;3.40;;;;;;;;;;5352886;26;20948;-66
2024/04/19 14:11:40;;;;;;;57.57;3.93;;;;;;;;;;5352589;26;20561;-66
2024/04/19 14:14:09;;;;;;;56.37;2.93;;;;;;;;;;5351938;26;20547;-66
2024/04/19 14:16:37;;;;;;;56.60;3.30;;;;;;;;;;5350712;26;20604;-66
2024/04/19 14:19:06;;;;;;;57.30;3.80;;;;;;;;;;5350499;26;20475;-67
2024/04/19 14:21:35;;;;;;;58.00;3.90;;;;;;;;;;5351199;26;20484;-66
2024/04/19 14:24:04;;;;;;;56.80;3.50;;;;;;;;;;5351078;26;20573;-66
2024/04/19 14:26:35;;;;;;;56.27;3.70;;;;;;;;;;5350536;26;20563;-66
2024/04/19 14:29:04;;;;;;;56.50;3.30;;;;;;;;;;5350894;26;21088;-66
2024/04/19 14:31:33;;;;;;;56.57;3.10;;;;;;;;;;5352273;26;20472;-66
2024/04/19 14:34:02;;;;;;;56.37;3.13;;;;;;;;;;5350615;26;20510;-66
2024/04/19 14:36:31;;;;;;;56.67;3.53;;;;;;;;;;5337174;26;20483;-67
2024/04/19 14:38:59;;;;;;;56.20;3.17;;;;;;;;;;5350523;26;20907;-66
2024/04/19 14:41:30;;;;;;;56.30;3.67;;;;;;;;;;5335915;26;20634;-66
2024/04/19 14:44:02;;;;;;;55.97;3.47;;;;;;;;;;5349279;26;20532;-66